Time;durP1;ratioP1;P1;durP2;ratioP2;P2;SDS_P1;SDS_P2;PMS_P1;PMS_P2;Temp;Humidity;BMP_temperature;BMP_pressure;BME280_temperature;BME280_humidity;BME280_pressure;Samples;Min_cycle;Max_cycle;Signal;HPM_P1;HPM_P2
2022/03/06 14:13:33;;;;;;;0.20;0.10;;;12.10;99.90;;;;;;25448771;23;20159;-70
2022/03/06 14:23:37;;;;;;;0.20;0.10;;;11.80;99.90;;;;;;25449937;23;20194;-69
2022/03/06 14:33:46;;;;;;;0.20;0.10;;;11.90;99.90;;;;;;25449671;23;20167;-67
2022/03/06 14:43:50;;;;;;;0.20;0.10;;;11.70;99.90;;;;;;25449144;23;20179;-68
2022/03/06 14:53:58;;;;;;;0.20;0.10;;;11.80;99.90;;;;;;25449761;23;20186;-67
2022/03/06 15:04:06;;;;;;;0.20;0.10;;;11.70;99.90;;;;;;25429957;23;20195;-67
2022/03/06 15:14:11;;;;;;;0.20;0.00;;;11.80;99.90;;;;;;25568925;23;20190;-68
2022/03/06 15:24:15;;;;;;;0.20;0.10;;;12.00;99.90;;;;;;25568676;23;20182;-66
2022/03/06 15:34:20;;;;;;;0.20;0.10;;;12.00;99.90;;;;;;25544117;23;20250;-67
2022/03/06 15:44:24;;;;;;;0.20;0.10;;;12.20;99.90;;;;;;25569056;23;20174;-67
2022/03/06 15:54:30;;;;;;;0.20;0.10;;;12.40;99.90;;;;;;25568478;23;20255;-70
2022/03/06 16:04:33;;;;;;;0.20;0.10;;;12.20;99.90;;;;;;25567276;23;20211;-70
2022/03/06 16:14:39;;;;;;;0.20;0.10;;;12.20;99.90;;;;;;25565445;23;20198;-71
2022/03/06 16:24:43;;;;;;;0.53;0.53;;;12.10;99.90;;;;;;25567288;23;20159;-70
2022/03/06 16:34:48;;;;;;;0.20;0.10;;;11.80;99.90;;;;;;25567222;23;20187;-69
2022/03/06 16:45:08;;;;;;;0.20;0.10;;;12.00;99.90;;;;;;25565341;23;20160;-69
2022/03/06 16:55:13;;;;;;;0.93;0.60;;;11.80;99.90;;;;;;25566722;23;20235;-68
2022/03/06 17:05:18;;;;;;;0.20;0.10;;;11.60;99.90;;;;;;25565622;23;20193;-67
2022/03/06 17:15:23;;;;;;;0.20;0.10;;;11.50;99.90;;;;;;25540313;23;20210;-67
2022/03/06 17:25:27;;;;;;;0.20;0.10;;;11.60;99.90;;;;;;25541776;23;20188;-69
2022/03/06 17:35:32;;;;;;;0.20;0.10;;;11.50;99.90;;;;;;25545261;23;20198;-69
2022/03/06 17:45:38;;;;;;;0.63;0.60;;;11.20;99.90;;;;;;25542929;23;20167;-67
2022/03/06 17:55:43;;;;;;;3.07;2.97;;;11.30;99.90;;;;;;25542064;23;20191;-67
2022/03/06 18:05:49;;;;;;;0.20;0.10;;;11.20;99.90;;;;;;25542180;23;20191;-69
2022/03/06 18:15:55;;;;;;;0.20;0.10;;;11.10;99.90;;;;;;25569636;23;20195;-68
2022/03/06 18:26:11;;;;;;;0.20;0.10;;;11.00;99.90;;;;;;25543549;23;20183;-72
2022/03/06 18:36:16;;;;;;;0.20;0.10;;;11.00;99.90;;;;;;25542148;23;20221;-70
2022/03/06 18:46:20;;;;;;;0.20;0.07;;;11.00;99.90;;;;;;25543175;23;20186;-71
2022/03/06 18:56:25;;;;;;;0.20;0.10;;;11.00;99.90;;;;;;25518119;23;20191;-69
2022/03/06 19:06:29;;;;;;;0.20;0.10;;;11.00;99.90;;;;;;25566956;23;20190;-71
2022/03/06 19:16:41;;;;;;;0.20;0.10;;;11.00;99.90;;;;;;25568318;23;20225;-71
2022/03/06 19:26:45;;;;;;;0.20;0.10;;;11.00;99.90;;;;;;25567406;23;20151;-70
2022/03/06 19:36:50;;;;;;;0.20;0.10;;;11.00;99.90;;;;;;25566836;23;20186;-70
2022/03/06 19:46:54;;;;;;;0.20;0.10;;;11.00;99.90;;;;;;25565168;23;20568;-69
2022/03/06 19:57:00;;;;;;;0.20;0.10;;;11.00;99.90;;;;;;25567348;23;20262;-70
2022/03/06 20:07:04;;;;;;;0.20;0.10;;;10.80;99.90;;;;;;25565405;23;20209;-79
2022/03/06 20:17:15;;;;;;;0.20;0.10;;;10.50;99.90;;;;;;25544706;23;20274;-81
2022/03/06 20:27:19;;;;;;;0.20;0.10;;;10.60;99.90;;;;;;25566701;23;20167;-79
2022/03/06 20:37:24;;;;;;;0.20;0.10;;;10.60;99.90;;;;;;25565778;23;20183;-77
2022/03/06 20:47:28;;;;;;;0.20;0.00;;;10.50;99.90;;;;;;25566405;23;20159;-69
2022/03/06 20:57:33;;;;;;;0.43;0.43;;;10.50;99.90;;;;;;25566357;23;20191;-67
2022/03/06 21:07:40;;;;;;;0.20;0.10;;;10.40;99.90;;;;;;25567394;23;20191;-79
2022/03/06 21:17:46;;;;;;;0.20;0.10;;;10.20;99.90;;;;;;25568738;23;20198;-79
2022/03/06 21:27:51;;;;;;;0.20;0.10;;;10.10;99.90;;;;;;25543638;23;20167;-78
2022/03/06 21:37:56;;;;;;;0.20;0.10;;;10.10;99.90;;;;;;25546155;23;21163;-79
2022/03/06 21:48:00;;;;;;;0.20;0.07;;;10.20;99.90;;;;;;25571657;23;20592;-77
2022/03/06 21:58:05;;;;;;;0.20;0.00;;;10.10;99.90;;;;;;25545536;23;20187;-67
2022/03/06 22:08:09;;;;;;;0.20;0.10;;;9.90;99.90;;;;;;25570179;23;20191;-68
2022/03/06 22:18:15;;;;;;;0.20;0.10;;;9.80;99.90;;;;;;25550716;23;20198;-67
2022/03/06 22:28:18;;;;;;;0.20;0.10;;;9.80;99.90;;;;;;25576541;23;20155;-67
2022/03/06 22:38:23;;;;;;;0.20;0.10;;;9.70;99.90;;;;;;25549347;23;20211;-79
2022/03/06 22:48:32;;;;;;;0.20;0.00;;;9.80;99.90;;;;;;25549765;23;20178;-81
2022/03/06 22:58:37;;;;;;;0.20;0.10;;;9.80;99.90;;;;;;25574011;23;20199;-80
2022/03/06 23:08:41;;;;;;;0.20;0.10;;;9.90;99.90;;;;;;25573538;23;20283;-78
2022/03/06 23:18:47;;;;;;;0.20;0.10;;;9.90;99.90;;;;;;25551953;23;20198;-78
2022/03/06 23:28:50;;;;;;;0.20;0.10;;;9.90;99.90;;;;;;25574510;23;20163;-75
2022/03/06 23:38:56;;;;;;;0.20;0.10;;;9.90;99.90;;;;;;25547448;23;20182;-77
2022/03/06 23:49:00;;;;;;;0.20;0.00;;;9.80;99.90;;;;;;25550211;23;20179;-75
2022/03/06 23:59:05;;;;;;;0.20;0.10;;;9.80;99.90;;;;;;25573644;23;20189;-75
